sensor_id;sensor_type;location;lat;lon;timestamp;temperature;humidity
39875;DHT22;25547;52.530;13.194;2023-04-15T00:01:01;8.70;99.90
39875;DHT22;25547;52.530;13.194;2023-04-15T00:03:27;8.70;99.90
39875;DHT22;25547;52.530;13.194;2023-04-15T00:05:57;8.80;99.90
39875;DHT22;25547;52.530;13.194;2023-04-15T00:08:22;8.80;99.90
39875;DHT22;25547;52.530;13.194;2023-04-15T00:10:48;8.80;99.90
39875;DHT22;25547;52.530;13.194;2023-04-15T00:13:16;8.80;99.90
39875;DHT22;25547;52.530;13.194;2023-04-15T00:15:41;8.80;99.90
39875;DHT22;25547;52.530;13.194;2023-04-15T00:18:09;8.80;99.90
39875;DHT22;25547;52.530;13.194;2023-04-15T00:20:37;8.90;99.90
39875;DHT22;25547;52.530;13.194;2023-04-15T00:23:05;8.80;99.90
39875;DHT22;25547;52.530;13.194;2023-04-15T00:25:32;8.80;99.90
39875;DHT22;25547;52.530;13.194;2023-04-15T00:27:59;8.80;99.90
39875;DHT22;25547;52.530;13.194;2023-04-15T00:30:25;8.70;99.90
39875;DHT22;25547;52.530;13.194;2023-04-15T00:32:50;8.70;99.90
39875;DHT22;25547;52.530;13.194;2023-04-15T00:35:17;8.80;99.90
39875;DHT22;25547;52.530;13.194;2023-04-15T00:37:43;8.70;99.90
39875;DHT22;25547;52.530;13.194;2023-04-15T00:40:11;8.80;99.90
39875;DHT22;25547;52.530;13.194;2023-04-15T00:42:40;8.80;99.90
39875;DHT22;25547;52.530;13.194;2023-04-15T00:45:06;8.80;99.90
39875;DHT22;25547;52.530;13.194;2023-04-15T00:47:34;8.80;99.90
39875;DHT22;25547;52.530;13.194;2023-04-15T00:50:01;8.80;99.90
39875;DHT22;25547;52.530;13.194;2023-04-15T00:52:27;8.80;99.90
39875;DHT22;25547;52.530;13.194;2023-04-15T00:54:53;8.80;99.90
39875;DHT22;25547;52.530;13.194;2023-04-15T00:57:22;8.80;99.90
39875;DHT22;25547;52.530;13.194;2023-04-15T00:59:48;8.80;99.90
39875;DHT22;25547;52.530;13.194;2023-04-15T01:02:14;8.80;99.90
39875;DHT22;25547;52.530;13.194;2023-04-15T01:04:42;8.80;99.90
39875;DHT22;25547;52.530;13.194;2023-04-15T01:07:10;8.80;99.90
39875;DHT22;25547;52.530;13.194;2023-04-15T01:09:36;8.80;99.90
39875;DHT22;25547;52.530;13.194;2023-04-15T01:12:02;8.80;99.90
39875;DHT22;25547;52.530;13.194;2023-04-15T01:14:29;8.80;99.90
39875;DHT22;25547;52.530;13.194;2023-04-15T01:16:57;8.80;99.90
39875;DHT22;25547;52.530;13.194;2023-04-15T01:19:25;8.80;99.90
39875;DHT22;25547;52.530;13.194;2023-04-15T01:21:51;8.80;99.90
39875;DHT22;25547;52.530;13.194;2023-04-15T01:24:18;8.80;99.90
39875;DHT22;25547;52.530;13.194;2023-04-15T01:26:44;8.90;99.90
39875;DHT22;25547;52.530;13.194;2023-04-15T01:29:11;8.90;99.90
39875;DHT22;25547;52.530;13.194;2023-04-15T01:31:37;8.90;99.90
39875;DHT22;25547;52.530;13.194;2023-04-15T01:34:05;8.90;99.90
39875;DHT22;25547;52.530;13.194;2023-04-15T01:36:33;8.80;99.90
39875;DHT22;25547;52.530;13.194;2023-04-15T01:38:59;8.80;99.90
39875;DHT22;25547;52.530;13.194;2023-04-15T01:41:28;8.80;99.90
39875;DHT22;25547;52.530;13.194;2023-04-15T01:43:56;8.80;99.90
39875;DHT22;25547;52.530;13.194;2023-04-15T01:46:22;8.80;99.90
39875;DHT22;25547;52.530;13.194;2023-04-15T01:48:47;8.80;99.90
39875;DHT22;25547;52.530;13.194;2023-04-15T01:51:13;8.80;99.90
39875;DHT22;25547;52.530;13.194;2023-04-15T01:53:38;8.80;99.90
39875;DHT22;25547;52.530;13.194;2023-04-15T01:56:06;8.80;99.90
39875;DHT22;25547;52.530;13.194;2023-04-15T01:58:35;8.80;99.90
39875;DHT22;25547;52.530;13.194;2023-04-15T02:01:00;8.80;99.90
39875;DHT22;25547;52.530;13.194;2023-04-15T02:03:27;8.80;99.90
39875;DHT22;25547;52.530;13.194;2023-04-15T02:05:54;8.80;99.90
39875;DHT22;25547;52.530;13.194;2023-04-15T02:08:19;8.80;99.90
39875;DHT22;25547;52.530;13.194;2023-04-15T02:10:45;8.80;99.90
39875;DHT22;25547;52.530;13.194;2023-04-15T02:13:11;8.80;99.90
39875;DHT22;25547;52.530;13.194;2023-04-15T02:15:36;8.80;99.90
39875;DHT22;25547;52.530;13.194;2023-04-15T02:18:03;8.80;99.90
39875;DHT22;25547;52.530;13.194;2023-04-15T02:20:29;8.80;99.90
39875;DHT22;25547;52.530;13.194;2023-04-15T02:22:57;8.80;99.90
39875;DHT22;25547;52.530;13.194;2023-04-15T02:25:23;8.80;99.90
39875;DHT22;25547;52.530;13.194;2023-04-15T02:27:48;8.90;99.90
39875;DHT22;25547;52.530;13.194;2023-04-15T02:30:14;8.80;99.90
39875;DHT22;25547;52.530;13.194;2023-04-15T02:32:40;8.90;99.90
39875;DHT22;25547;52.530;13.194;2023-04-15T02:35:11;8.80;99.90
39875;DHT22;25547;52.530;13.194;2023-04-15T02:37:37;8.90;99.90
39875;DHT22;25547;52.530;13.194;2023-04-15T02:40:08;8.90;99.90
39875;DHT22;25547;52.530;13.194;2023-04-15T02:42:39;8.90;99.90
39875;DHT22;25547;52.530;13.194;2023-04-15T02:45:06;8.90;99.90
39875;DHT22;25547;52.530;13.194;2023-04-15T02:47:33;8.90;99.90
39875;DHT22;25547;52.530;13.194;2023-04-15T02:49:59;8.90;99.90
39875;DHT22;25547;52.530;13.194;2023-04-15T02:52:26;8.90;99.90
39875;DHT22;25547;52.530;13.194;2023-04-15T02:54:54;8.90;99.90
39875;DHT22;25547;52.530;13.194;2023-04-15T02:57:26;8.90;99.90
39875;DHT22;25547;52.530;13.194;2023-04-15T02:59:52;8.90;99.90
39875;DHT22;25547;52.530;13.194;2023-04-15T03:02:18;8.90;99.90
39875;DHT22;25547;52.530;13.194;2023-04-15T03:04:44;8.90;99.90
39875;DHT22;25547;52.530;13.194;2023-04-15T03:07:09;8.90;99.90
39875;DHT22;25547;52.530;13.194;2023-04-15T03:09:35;8.90;99.90
39875;DHT22;25547;52.530;13.194;2023-04-15T03:12:03;8.90;99.90
39875;DHT22;25547;52.530;13.194;2023-04-15T03:14:29;9.00;99.90
39875;DHT22;25547;52.530;13.194;2023-04-15T03:16:55;9.00;99.90
39875;DHT22;25547;52.530;13.194;2023-04-15T03:19:20;9.00;99.90
39875;DHT22;25547;52.530;13.194;2023-04-15T03:21:46;9.10;99.90
39875;DHT22;25547;52.530;13.194;2023-04-15T03:24:12;9.10;99.90
39875;DHT22;25547;52.530;13.194;2023-04-15T03:26:40;9.10;99.90
39875;DHT22;25547;52.530;13.194;2023-04-15T03:29:05;9.10;99.90
39875;DHT22;25547;52.530;13.194;2023-04-15T03:31:31;9.10;99.90
39875;DHT22;25547;52.530;13.194;2023-04-15T03:33:56;9.10;99.90
39875;DHT22;25547;52.530;13.194;2023-04-15T03:36:22;9.10;99.90
39875;DHT22;25547;52.530;13.194;2023-04-15T03:38:50;9.10;99.90
39875;DHT22;25547;52.530;13.194;2023-04-15T03:41:16;9.00;99.90
39875;DHT22;25547;52.530;13.194;2023-04-15T03:43:41;9.00;99.90
39875;DHT22;25547;52.530;13.194;2023-04-15T03:46:07;9.00;99.90
39875;DHT22;25547;52.530;13.194;2023-04-15T03:48:37;9.00;99.90
39875;DHT22;25547;52.530;13.194;2023-04-15T03:51:03;9.10;99.90
39875;DHT22;25547;52.530;13.194;2023-04-15T03:53:28;9.10;99.90
39875;DHT22;25547;52.530;13.194;2023-04-15T03:55:54;9.10;99.90
39875;DHT22;25547;52.530;13.194;2023-04-15T03:58:25;9.10;99.90
39875;DHT22;25547;52.530;13.194;2023-04-15T04:00:53;9.10;99.90
39875;DHT22;25547;52.530;13.194;2023-04-15T04:03:19;9.10;99.90
39875;DHT22;25547;52.530;13.194;2023-04-15T04:05:45;9.10;99.90
39875;DHT22;25547;52.530;13.194;2023-04-15T04:08:10;9.10;99.90
39875;DHT22;25547;52.530;13.194;2023-04-15T04:10:38;9.10;99.90
39875;DHT22;25547;52.530;13.194;2023-04-15T04:13:07;9.20;99.90
39875;DHT22;25547;52.530;13.194;2023-04-15T04:15:35;9.10;99.90
39875;DHT22;25547;52.530;13.194;2023-04-15T04:18:01;9.20;99.90
39875;DHT22;25547;52.530;13.194;2023-04-15T04:20:26;9.20;99.90
39875;DHT22;25547;52.530;13.194;2023-04-15T04:22:52;9.20;99.90
39875;DHT22;25547;52.530;13.194;2023-04-15T04:25:20;9.20;99.90
39875;DHT22;25547;52.530;13.194;2023-04-15T04:27:45;9.20;99.90
39875;DHT22;25547;52.530;13.194;2023-04-15T04:30:11;9.20;99.90
39875;DHT22;25547;52.530;13.194;2023-04-15T04:32:39;9.20;99.90
39875;DHT22;25547;52.530;13.194;2023-04-15T04:35:05;9.20;99.90
39875;DHT22;25547;52.530;13.194;2023-04-15T04:37:31;9.10;99.90
39875;DHT22;25547;52.530;13.194;2023-04-15T04:39:59;9.20;99.90
39875;DHT22;25547;52.530;13.194;2023-04-15T04:42:25;9.20;99.90
39875;DHT22;25547;52.530;13.194;2023-04-15T04:44:53;9.20;99.90
39875;DHT22;25547;52.530;13.194;2023-04-15T04:47:21;9.20;99.90
39875;DHT22;25547;52.530;13.194;2023-04-15T04:49:46;9.20;99.90
39875;DHT22;25547;52.530;13.194;2023-04-15T04:52:12;9.30;99.90
39875;DHT22;25547;52.530;13.194;2023-04-15T04:54:42;9.30;99.90
39875;DHT22;25547;52.530;13.194;2023-04-15T04:57:08;9.30;99.90
39875;DHT22;25547;52.530;13.194;2023-04-15T04:59:33;9.30;99.90
39875;DHT22;25547;52.530;13.194;2023-04-15T05:01:59;9.30;99.90
39875;DHT22;25547;52.530;13.194;2023-04-15T05:04:27;9.30;99.90
39875;DHT22;25547;52.530;13.194;2023-04-15T05:06:53;9.30;99.90
39875;DHT22;25547;52.530;13.194;2023-04-15T05:09:18;9.30;99.90
39875;DHT22;25547;52.530;13.194;2023-04-15T05:11:44;9.30;99.90
39875;DHT22;25547;52.530;13.194;2023-04-15T05:14:12;9.30;99.90
39875;DHT22;25547;52.530;13.194;2023-04-15T05:16:40;9.30;99.90
39875;DHT22;25547;52.530;13.194;2023-04-15T05:19:06;9.40;99.90
39875;DHT22;25547;52.530;13.194;2023-04-15T05:21:34;9.40;99.90
39875;DHT22;25547;52.530;13.194;2023-04-15T05:24:02;9.40;99.90
39875;DHT22;25547;52.530;13.194;2023-04-15T05:26:28;9.40;99.90
39875;DHT22;25547;52.530;13.194;2023-04-15T05:28:54;9.40;99.90
39875;DHT22;25547;52.530;13.194;2023-04-15T05:31:19;9.50;99.90
39875;DHT22;25547;52.530;13.194;2023-04-15T05:33:45;9.40;99.90
39875;DHT22;25547;52.530;13.194;2023-04-15T05:36:11;9.50;99.90
39875;DHT22;25547;52.530;13.194;2023-04-15T05:38:38;9.50;99.90
39875;DHT22;25547;52.530;13.194;2023-04-15T05:41:09;9.50;99.90
39875;DHT22;25547;52.530;13.194;2023-04-15T05:43:35;9.50;99.90
39875;DHT22;25547;52.530;13.194;2023-04-15T05:46:05;9.50;99.90
39875;DHT22;25547;52.530;13.194;2023-04-15T05:48:33;9.50;99.90
39875;DHT22;25547;52.530;13.194;2023-04-15T05:50:59;9.50;99.90
39875;DHT22;25547;52.530;13.194;2023-04-15T05:53:25;9.50;99.90
39875;DHT22;25547;52.530;13.194;2023-04-15T05:55:51;9.60;99.90
39875;DHT22;25547;52.530;13.194;2023-04-15T05:58:17;9.50;99.90
39875;DHT22;25547;52.530;13.194;2023-04-15T06:00:45;9.60;99.90
39875;DHT22;25547;52.530;13.194;2023-04-15T06:03:10;9.60;99.90
39875;DHT22;25547;52.530;13.194;2023-04-15T06:05:36;9.70;99.90
39875;DHT22;25547;52.530;13.194;2023-04-15T06:08:02;9.70;99.90
39875;DHT22;25547;52.530;13.194;2023-04-15T06:10:28;9.70;99.90
39875;DHT22;25547;52.530;13.194;2023-04-15T06:12:56;9.80;99.90
39875;DHT22;25547;52.530;13.194;2023-04-15T06:15:26;9.80;99.90
39875;DHT22;25547;52.530;13.194;2023-04-15T06:17:54;10.00;99.90
39875;DHT22;25547;52.530;13.194;2023-04-15T06:20:19;10.00;99.90
39875;DHT22;25547;52.530;13.194;2023-04-15T06:22:48;10.10;99.90
39875;DHT22;25547;52.530;13.194;2023-04-15T06:25:16;10.10;99.90
39875;DHT22;25547;52.530;13.194;2023-04-15T06:27:42;10.10;99.90
39875;DHT22;25547;52.530;13.194;2023-04-15T06:30:08;10.10;99.90
39875;DHT22;25547;52.530;13.194;2023-04-15T06:32:34;10.10;99.90
39875;DHT22;25547;52.530;13.194;2023-04-15T06:35:00;10.10;99.90
39875;DHT22;25547;52.530;13.194;2023-04-15T06:37:28;10.20;99.90
39875;DHT22;25547;52.530;13.194;2023-04-15T06:39:53;10.10;99.90
39875;DHT22;25547;52.530;13.194;2023-04-15T06:42:19;10.20;99.90
39875;DHT22;25547;52.530;13.194;2023-04-15T06:44:47;10.20;99.90
39875;DHT22;25547;52.530;13.194;2023-04-15T06:47:15;10.30;99.90
39875;DHT22;25547;52.530;13.194;2023-04-15T06:49:41;10.40;99.90
39875;DHT22;25547;52.530;13.194;2023-04-15T06:52:10;10.50;99.90
39875;DHT22;25547;52.530;13.194;2023-04-15T06:54:35;10.60;99.90
39875;DHT22;25547;52.530;13.194;2023-04-15T06:57:01;10.70;99.90
39875;DHT22;25547;52.530;13.194;2023-04-15T06:59:31;10.70;99.90
39875;DHT22;25547;52.530;13.194;2023-04-15T07:01:57;10.90;99.90
39875;DHT22;25547;52.530;13.194;2023-04-15T07:04:22;11.00;99.90
39875;DHT22;25547;52.530;13.194;2023-04-15T07:06:48;11.10;99.90
39875;DHT22;25547;52.530;13.194;2023-04-15T07:09:16;11.20;99.90
39875;DHT22;25547;52.530;13.194;2023-04-15T07:11:42;11.30;99.90
39875;DHT22;25547;52.530;13.194;2023-04-15T07:14:08;11.50;99.90
39875;DHT22;25547;52.530;13.194;2023-04-15T07:16:36;11.50;99.90
39875;DHT22;25547;52.530;13.194;2023-04-15T07:19:02;11.50;99.90
39875;DHT22;25547;52.530;13.194;2023-04-15T07:21:28;11.50;99.90
39875;DHT22;25547;52.530;13.194;2023-04-15T07:23:53;11.50;99.90
39875;DHT22;25547;52.530;13.194;2023-04-15T07:26:19;11.50;99.90
39875;DHT22;25547;52.530;13.194;2023-04-15T07:28:45;11.50;99.90
39875;DHT22;25547;52.530;13.194;2023-04-15T07:31:12;11.30;99.90
39875;DHT22;25547;52.530;13.194;2023-04-15T07:33:37;11.30;99.90
39875;DHT22;25547;52.530;13.194;2023-04-15T07:36:03;11.30;99.90
39875;DHT22;25547;52.530;13.194;2023-04-15T07:38:31;11.10;99.90
39875;DHT22;25547;52.530;13.194;2023-04-15T07:40:59;11.10;99.90
39875;DHT22;25547;52.530;13.194;2023-04-15T07:43:24;11.20;99.90
39875;DHT22;25547;52.530;13.194;2023-04-15T07:45:52;11.00;99.90
39875;DHT22;25547;52.530;13.194;2023-04-15T07:48:18;11.00;99.90
39875;DHT22;25547;52.530;13.194;2023-04-15T07:50:44;10.80;99.90
39875;DHT22;25547;52.530;13.194;2023-04-15T07:53:14;10.80;99.90
39875;DHT22;25547;52.530;13.194;2023-04-15T07:55:42;10.80;99.90
39875;DHT22;25547;52.530;13.194;2023-04-15T07:58:07;10.70;99.90
39875;DHT22;25547;52.530;13.194;2023-04-15T08:00:33;10.70;99.90
39875;DHT22;25547;52.530;13.194;2023-04-15T08:03:01;10.70;99.90
39875;DHT22;25547;52.530;13.194;2023-04-15T08:05:27;10.70;99.90
39875;DHT22;25547;52.530;13.194;2023-04-15T08:07:53;10.70;99.90
39875;DHT22;25547;52.530;13.194;2023-04-15T08:10:18;10.80;99.90
39875;DHT22;25547;52.530;13.194;2023-04-15T08:12:44;10.80;99.90
39875;DHT22;25547;52.530;13.194;2023-04-15T08:15:13;10.80;99.90
39875;DHT22;25547;52.530;13.194;2023-04-15T08:17:39;10.80;99.90
39875;DHT22;25547;52.530;13.194;2023-04-15T08:20:05;10.80;99.90
39875;DHT22;25547;52.530;13.194;2023-04-15T08:22:31;10.80;99.90
39875;DHT22;25547;52.530;13.194;2023-04-15T08:24:56;10.80;99.90
39875;DHT22;25547;52.530;13.194;2023-04-15T08:27:22;10.80;99.90
39875;DHT22;25547;52.530;13.194;2023-04-15T08:29:48;10.80;99.90
39875;DHT22;25547;52.530;13.194;2023-04-15T08:32:16;10.80;99.90
39875;DHT22;25547;52.530;13.194;2023-04-15T08:34:41;10.70;99.90
39875;DHT22;25547;52.530;13.194;2023-04-15T08:37:07;10.70;99.90
39875;DHT22;25547;52.530;13.194;2023-04-15T08:39:35;10.80;99.90
39875;DHT22;25547;52.530;13.194;2023-04-15T08:42:02;10.80;99.90
39875;DHT22;25547;52.530;13.194;2023-04-15T08:44:34;10.80;99.90
39875;DHT22;25547;52.530;13.194;2023-04-15T08:47:07;10.80;99.90
39875;DHT22;25547;52.530;13.194;2023-04-15T08:49:35;10.90;99.90
39875;DHT22;25547;52.530;13.194;2023-04-15T08:52:03;10.90;99.90
39875;DHT22;25547;52.530;13.194;2023-04-15T08:54:29;11.00;99.90
39875;DHT22;25547;52.530;13.194;2023-04-15T08:56:57;11.10;99.90
39875;DHT22;25547;52.530;13.194;2023-04-15T08:59:23;11.10;99.90
39875;DHT22;25547;52.530;13.194;2023-04-15T09:01:49;11.00;99.90
39875;DHT22;25547;52.530;13.194;2023-04-15T09:04:16;10.90;99.90
39875;DHT22;25547;52.530;13.194;2023-04-15T09:06:41;10.90;99.90
39875;DHT22;25547;52.530;13.194;2023-04-15T09:09:09;10.80;99.90
39875;DHT22;25547;52.530;13.194;2023-04-15T09:11:36;10.80;99.90
39875;DHT22;25547;52.530;13.194;2023-04-15T09:14:02;10.80;99.90
39875;DHT22;25547;52.530;13.194;2023-04-15T09:16:28;10.90;99.90
39875;DHT22;25547;52.530;13.194;2023-04-15T09:18:53;10.90;99.90
39875;DHT22;25547;52.530;13.194;2023-04-15T09:21:19;10.90;99.90
39875;DHT22;25547;52.530;13.194;2023-04-15T09:24:00;10.90;99.90
39875;DHT22;25547;52.530;13.194;2023-04-15T09:26:35;10.90;99.90
39875;DHT22;25547;52.530;13.194;2023-04-15T09:29:08;10.90;99.90
39875;DHT22;25547;52.530;13.194;2023-04-15T09:31:35;10.90;99.90
39875;DHT22;25547;52.530;13.194;2023-04-15T09:34:01;10.90;99.90
39875;DHT22;25547;52.530;13.194;2023-04-15T09:36:27;10.90;99.90
39875;DHT22;25547;52.530;13.194;2023-04-15T09:38:56;10.90;99.90
39875;DHT22;25547;52.530;13.194;2023-04-15T09:41:22;10.90;99.90
39875;DHT22;25547;52.530;13.194;2023-04-15T09:43:50;11.00;99.90
39875;DHT22;25547;52.530;13.194;2023-04-15T09:46:16;11.00;99.90
39875;DHT22;25547;52.530;13.194;2023-04-15T09:48:42;11.00;99.90
39875;DHT22;25547;52.530;13.194;2023-04-15T09:51:07;11.10;99.90
39875;DHT22;25547;52.530;13.194;2023-04-15T09:53:35;11.10;99.90
39875;DHT22;25547;52.530;13.194;2023-04-15T09:56:01;11.10;99.90
39875;DHT22;25547;52.530;13.194;2023-04-15T10:00:54;11.20;99.90
39875;DHT22;25547;52.530;13.194;2023-04-15T10:03:23;11.10;99.90
39875;DHT22;25547;52.530;13.194;2023-04-15T10:05:50;11.10;99.90
39875;DHT22;25547;52.530;13.194;2023-04-15T10:08:21;11.10;99.90
39875;DHT22;25547;52.530;13.194;2023-04-15T10:10:48;11.00;99.90
39875;DHT22;25547;52.530;13.194;2023-04-15T10:13:23;11.00;99.90
39875;DHT22;25547;52.530;13.194;2023-04-15T10:16:00;11.00;99.90
39875;DHT22;25547;52.530;13.194;2023-04-15T10:18:33;11.00;99.90
39875;DHT22;25547;52.530;13.194;2023-04-15T10:21:01;11.00;99.90
39875;DHT22;25547;52.530;13.194;2023-04-15T10:23:27;11.00;99.90
39875;DHT22;25547;52.530;13.194;2023-04-15T10:25:53;11.00;99.90
39875;DHT22;25547;52.530;13.194;2023-04-15T10:28:20;11.00;99.90
39875;DHT22;25547;52.530;13.194;2023-04-15T10:30:47;11.10;99.90
39875;DHT22;25547;52.530;13.194;2023-04-15T10:33:16;11.10;99.90
39875;DHT22;25547;52.530;13.194;2023-04-15T10:35:44;11.10;99.90
39875;DHT22;25547;52.530;13.194;2023-04-15T10:38:38;11.10;99.90
39875;DHT22;25547;52.530;13.194;2023-04-15T10:41:24;11.10;99.90
39875;DHT22;25547;52.530;13.194;2023-04-15T10:44:09;11.10;99.90
39875;DHT22;25547;52.530;13.194;2023-04-15T10:49:11;11.00;99.90
39875;DHT22;25547;52.530;13.194;2023-04-15T10:51:45;11.00;99.90
39875;DHT22;25547;52.530;13.194;2023-04-15T10:54:36;11.10;99.90
39875;DHT22;25547;52.530;13.194;2023-04-15T10:59:38;11.10;99.90
39875;DHT22;25547;52.530;13.194;2023-04-15T11:02:44;11.10;99.90
39875;DHT22;25547;52.530;13.194;2023-04-15T11:05:11;11.20;99.90
39875;DHT22;25547;52.530;13.194;2023-04-15T11:12:47;11.30;99.90
39875;DHT22;25547;52.530;13.194;2023-04-15T11:15:46;11.40;99.90
39875;DHT22;25547;52.530;13.194;2023-04-15T11:18:16;11.30;99.90
39875;DHT22;25547;52.530;13.194;2023-04-15T11:20:46;11.30;99.90
39875;DHT22;25547;52.530;13.194;2023-04-15T11:23:13;11.40;99.90
39875;DHT22;25547;52.530;13.194;2023-04-15T11:25:40;11.30;99.90
39875;DHT22;25547;52.530;13.194;2023-04-15T11:28:06;11.30;99.90
39875;DHT22;25547;52.530;13.194;2023-04-15T11:30:35;11.30;99.90
39875;DHT22;25547;52.530;13.194;2023-04-15T11:33:09;11.30;99.90
39875;DHT22;25547;52.530;13.194;2023-04-15T11:35:37;11.30;99.90
39875;DHT22;25547;52.530;13.194;2023-04-15T11:38:10;11.30;99.90
39875;DHT22;25547;52.530;13.194;2023-04-15T11:40:37;11.30;99.90
39875;DHT22;25547;52.530;13.194;2023-04-15T11:45:37;11.30;99.90
39875;DHT22;25547;52.530;13.194;2023-04-15T11:48:14;11.30;99.90
39875;DHT22;25547;52.530;13.194;2023-04-15T11:50:40;11.30;99.90
39875;DHT22;25547;52.530;13.194;2023-04-15T11:53:12;11.30;99.90
39875;DHT22;25547;52.530;13.194;2023-04-15T11:55:45;11.30;99.90
39875;DHT22;25547;52.530;13.194;2023-04-15T11:58:20;11.30;99.90
39875;DHT22;25547;52.530;13.194;2023-04-15T12:00:54;11.30;99.90
39875;DHT22;25547;52.530;13.194;2023-04-15T12:03:28;11.30;99.90
39875;DHT22;25547;52.530;13.194;2023-04-15T12:11:37;11.30;99.90
39875;DHT22;25547;52.530;13.194;2023-04-15T12:14:25;11.20;99.90
39875;DHT22;25547;52.530;13.194;2023-04-15T12:16:55;11.30;99.90
39875;DHT22;25547;52.530;13.194;2023-04-15T12:19:27;11.20;99.90
39875;DHT22;25547;52.530;13.194;2023-04-15T12:21:58;11.20;99.90
39875;DHT22;25547;52.530;13.194;2023-04-15T12:24:24;11.20;99.90
39875;DHT22;25547;52.530;13.194;2023-04-15T12:26:58;11.30;99.90
39875;DHT22;25547;52.530;13.194;2023-04-15T12:29:27;11.30;99.90
39875;DHT22;25547;52.530;13.194;2023-04-15T12:31:57;11.40;99.90
39875;DHT22;25547;52.530;13.194;2023-04-15T12:36:55;11.40;99.90
39875;DHT22;25547;52.530;13.194;2023-04-15T12:39:23;11.40;99.90
39875;DHT22;25547;52.530;13.194;2023-04-15T12:41:52;11.40;99.90
39875;DHT22;25547;52.530;13.194;2023-04-15T12:44:22;11.40;99.90
39875;DHT22;25547;52.530;13.194;2023-04-15T12:46:49;11.50;99.90
39875;DHT22;25547;52.530;13.194;2023-04-15T12:49:17;11.50;99.90
39875;DHT22;25547;52.530;13.194;2023-04-15T12:51:49;11.50;99.90
39875;DHT22;25547;52.530;13.194;2023-04-15T12:54:15;11.60;99.90
39875;DHT22;25547;52.530;13.194;2023-04-15T12:56:42;11.60;99.90
39875;DHT22;25547;52.530;13.194;2023-04-15T12:59:07;11.60;99.90
39875;DHT22;25547;52.530;13.194;2023-04-15T13:01:33;11.60;99.90
39875;DHT22;25547;52.530;13.194;2023-04-15T13:04:01;11.60;99.90
39875;DHT22;25547;52.530;13.194;2023-04-15T13:06:27;11.60;99.90
39875;DHT22;25547;52.530;13.194;2023-04-15T13:08:53;11.60;99.90
39875;DHT22;25547;52.530;13.194;2023-04-15T13:11:22;11.60;99.90
39875;DHT22;25547;52.530;13.194;2023-04-15T13:13:48;11.50;99.90
39875;DHT22;25547;52.530;13.194;2023-04-15T13:16:14;11.60;99.90
39875;DHT22;25547;52.530;13.194;2023-04-15T13:18:40;11.50;99.90
39875;DHT22;25547;52.530;13.194;2023-04-15T13:21:05;11.50;99.90
39875;DHT22;25547;52.530;13.194;2023-04-15T13:23:32;11.50;99.90
39875;DHT22;25547;52.530;13.194;2023-04-15T13:26:00;11.40;99.90
39875;DHT22;25547;52.530;13.194;2023-04-15T13:28:26;11.50;99.90
39875;DHT22;25547;52.530;13.194;2023-04-15T13:30:54;11.50;99.90
39875;DHT22;25547;52.530;13.194;2023-04-15T13:33:22;11.50;99.90
39875;DHT22;25547;52.530;13.194;2023-04-15T13:35:50;11.50;99.90
39875;DHT22;25547;52.530;13.194;2023-04-15T13:38:16;11.40;99.90
39875;DHT22;25547;52.530;13.194;2023-04-15T13:40:41;11.40;99.90
39875;DHT22;25547;52.530;13.194;2023-04-15T13:43:07;11.30;99.90
39875;DHT22;25547;52.530;13.194;2023-04-15T13:45:35;11.30;99.90
39875;DHT22;25547;52.530;13.194;2023-04-15T13:48:01;11.30;99.90
39875;DHT22;25547;52.530;13.194;2023-04-15T13:50:27;11.30;99.90
39875;DHT22;25547;52.530;13.194;2023-04-15T13:52:53;11.30;99.90
39875;DHT22;25547;52.530;13.194;2023-04-15T13:55:21;11.30;99.90
39875;DHT22;25547;52.530;13.194;2023-04-15T13:57:49;11.40;99.90
39875;DHT22;25547;52.530;13.194;2023-04-15T14:00:15;11.30;99.90
39875;DHT22;25547;52.530;13.194;2023-04-15T14:02:43;11.30;99.90
39875;DHT22;25547;52.530;13.194;2023-04-15T14:05:12;11.30;99.90
39875;DHT22;25547;52.530;13.194;2023-04-15T14:07:37;11.30;99.90
39875;DHT22;25547;52.530;13.194;2023-04-15T14:10:03;11.40;99.90
39875;DHT22;25547;52.530;13.194;2023-04-15T14:12:29;11.30;99.90
39875;DHT22;25547;52.530;13.194;2023-04-15T14:14:57;11.30;99.90
39875;DHT22;25547;52.530;13.194;2023-04-15T14:17:23;11.30;99.90
39875;DHT22;25547;52.530;13.194;2023-04-15T14:19:49;11.30;99.90
39875;DHT22;25547;52.530;13.194;2023-04-15T14:22:14;11.30;99.90
39875;DHT22;25547;52.530;13.194;2023-04-15T14:24:40;11.30;99.90
39875;DHT22;25547;52.530;13.194;2023-04-15T14:27:06;11.30;99.90
39875;DHT22;25547;52.530;13.194;2023-04-15T14:29:37;11.20;99.90
39875;DHT22;25547;52.530;13.194;2023-04-15T14:32:03;11.20;99.90
39875;DHT22;25547;52.530;13.194;2023-04-15T14:34:31;11.20;99.90
39875;DHT22;25547;52.530;13.194;2023-04-15T14:36:57;11.30;99.90
39875;DHT22;25547;52.530;13.194;2023-04-15T14:39:27;11.20;99.90
39875;DHT22;25547;52.530;13.194;2023-04-15T14:41:52;11.20;99.90
39875;DHT22;25547;52.530;13.194;2023-04-15T14:44:18;11.20;99.90
39875;DHT22;25547;52.530;13.194;2023-04-15T14:46:47;11.20;99.90
39875;DHT22;25547;52.530;13.194;2023-04-15T14:49:13;11.30;99.90
39875;DHT22;25547;52.530;13.194;2023-04-15T14:51:39;11.20;99.90
39875;DHT22;25547;52.530;13.194;2023-04-15T14:54:04;11.20;99.90
39875;DHT22;25547;52.530;13.194;2023-04-15T14:56:32;11.10;99.90
39875;DHT22;25547;52.530;13.194;2023-04-15T14:59:00;11.10;99.90
39875;DHT22;25547;52.530;13.194;2023-04-15T15:01:28;11.10;99.90
39875;DHT22;25547;52.530;13.194;2023-04-15T15:03:54;11.10;99.90
39875;DHT22;25547;52.530;13.194;2023-04-15T15:06:20;11.10;99.90
39875;DHT22;25547;52.530;13.194;2023-04-15T15:08:48;11.10;99.90
39875;DHT22;25547;52.530;13.194;2023-04-15T15:11:14;11.10;99.90
39875;DHT22;25547;52.530;13.194;2023-04-15T15:13:40;11.10;99.90
39875;DHT22;25547;52.530;13.194;2023-04-15T15:16:06;11.20;99.90
39875;DHT22;25547;52.530;13.194;2023-04-15T15:18:32;11.20;99.90
39875;DHT22;25547;52.530;13.194;2023-04-15T15:20:57;11.10;99.90
39875;DHT22;25547;52.530;13.194;2023-04-15T15:23:23;11.10;99.90
39875;DHT22;25547;52.530;13.194;2023-04-15T15:25:53;11.10;99.90
39875;DHT22;25547;52.530;13.194;2023-04-15T15:28:19;11.10;99.90
39875;DHT22;25547;52.530;13.194;2023-04-15T15:30:46;11.10;99.90
39875;DHT22;25547;52.530;13.194;2023-04-15T15:33:12;11.10;99.90
39875;DHT22;25547;52.530;13.194;2023-04-15T15:35:39;11.10;99.90
39875;DHT22;25547;52.530;13.194;2023-04-15T15:38:05;11.10;99.90
39875;DHT22;25547;52.530;13.194;2023-04-15T15:40:31;11.10;99.90
39875;DHT22;25547;52.530;13.194;2023-04-15T15:42:57;11.10;99.90
39875;DHT22;25547;52.530;13.194;2023-04-15T15:45:22;11.10;99.90
39875;DHT22;25547;52.530;13.194;2023-04-15T15:47:48;11.00;99.90